sensor_id;sensor_type;location;lat;lon;timestamp;P1;durP1;ratioP1;P2;durP2;ratioP2
10059;SDS011;5069;49.306;8.636;2022-12-29T00:00:12;3.43;;;2.83;;
10059;SDS011;5069;49.306;8.636;2022-12-29T00:03:14;3.10;;;2.43;;
10059;SDS011;5069;49.306;8.636;2022-12-29T00:06:18;3.73;;;2.80;;
10059;SDS011;5069;49.306;8.636;2022-12-29T00:09:19;3.20;;;2.70;;
10059;SDS011;5069;49.306;8.636;2022-12-29T00:12:21;4.33;;;2.93;;
10059;SDS011;5069;49.306;8.636;2022-12-29T00:15:22;3.90;;;2.90;;
10059;SDS011;5069;49.306;8.636;2022-12-29T00:18:39;3.50;;;2.50;;
10059;SDS011;5069;49.306;8.636;2022-12-29T00:21:40;3.20;;;2.53;;
10059;SDS011;5069;49.306;8.636;2022-12-29T00:25:01;4.30;;;3.17;;
10059;SDS011;5069;49.306;8.636;2022-12-29T00:28:03;4.20;;;3.00;;
10059;SDS011;5069;49.306;8.636;2022-12-29T00:31:24;4.20;;;3.20;;
10059;SDS011;5069;49.306;8.636;2022-12-29T00:34:44;3.87;;;3.00;;
10059;SDS011;5069;49.306;8.636;2022-12-29T00:38:05;5.77;;;3.70;;
10059;SDS011;5069;49.306;8.636;2022-12-29T00:41:27;4.47;;;3.10;;
10059;SDS011;5069;49.306;8.636;2022-12-29T00:44:47;7.50;;;3.60;;
10059;SDS011;5069;49.306;8.636;2022-12-29T00:47:48;4.77;;;3.10;;
10059;SDS011;5069;49.306;8.636;2022-12-29T00:50:50;6.30;;;3.00;;
10059;SDS011;5069;49.306;8.636;2022-12-29T00:53:57;5.10;;;2.93;;
10059;SDS011;5069;49.306;8.636;2022-12-29T00:56:58;3.57;;;2.47;;
10059;SDS011;5069;49.306;8.636;2022-12-29T01:00:00;3.83;;;2.43;;
10059;SDS011;5069;49.306;8.636;2022-12-29T01:03:03;4.57;;;2.80;;
10059;SDS011;5069;49.306;8.636;2022-12-29T01:06:08;3.67;;;2.20;;
10059;SDS011;5069;49.306;8.636;2022-12-29T01:09:11;3.83;;;1.90;;
10059;SDS011;5069;49.306;8.636;2022-12-29T01:12:33;6.07;;;2.20;;
10059;SDS011;5069;49.306;8.636;2022-12-29T01:15:51;3.43;;;1.93;;
10059;SDS011;5069;49.306;8.636;2022-12-29T01:18:53;4.30;;;1.80;;
10059;SDS011;5069;49.306;8.636;2022-12-29T01:21:55;2.40;;;1.67;;
10059;SDS011;5069;49.306;8.636;2022-12-29T01:24:57;3.43;;;1.60;;
10059;SDS011;5069;49.306;8.636;2022-12-29T01:27:58;3.93;;;1.60;;
10059;SDS011;5069;49.306;8.636;2022-12-29T01:31:00;2.30;;;1.63;;
10059;SDS011;5069;49.306;8.636;2022-12-29T01:34:02;2.13;;;1.73;;
10059;SDS011;5069;49.306;8.636;2022-12-29T01:37:06;4.50;;;2.07;;
10059;SDS011;5069;49.306;8.636;2022-12-29T01:40:08;4.33;;;1.77;;
10059;SDS011;5069;49.306;8.636;2022-12-29T01:43:10;2.70;;;1.60;;
10059;SDS011;5069;49.306;8.636;2022-12-29T01:46:36;4.43;;;1.77;;
10059;SDS011;5069;49.306;8.636;2022-12-29T01:49:39;3.80;;;1.60;;
10059;SDS011;5069;49.306;8.636;2022-12-29T01:52:42;4.60;;;1.43;;
10059;SDS011;5069;49.306;8.636;2022-12-29T01:55:51;4.97;;;1.57;;
10059;SDS011;5069;49.306;8.636;2022-12-29T01:59:00;4.00;;;1.67;;
10059;SDS011;5069;49.306;8.636;2022-12-29T02:02:07;2.77;;;1.70;;
10059;SDS011;5069;49.306;8.636;2022-12-29T02:05:17;2.87;;;1.60;;
10059;SDS011;5069;49.306;8.636;2022-12-29T02:08:26;1.93;;;1.43;;
10059;SDS011;5069;49.306;8.636;2022-12-29T02:11:29;5.73;;;1.67;;
10059;SDS011;5069;49.306;8.636;2022-12-29T02:14:32;3.37;;;1.67;;
10059;SDS011;5069;49.306;8.636;2022-12-29T02:17:53;2.43;;;1.90;;
10059;SDS011;5069;49.306;8.636;2022-12-29T02:27:55;3.83;;;1.50;;
10059;SDS011;5069;49.306;8.636;2022-12-29T02:31:27;3.63;;;1.50;;
10059;SDS011;5069;49.306;8.636;2022-12-29T02:38:12;4.40;;;1.70;;
10059;SDS011;5069;49.306;8.636;2022-12-29T02:41:24;4.30;;;1.83;;
10059;SDS011;5069;49.306;8.636;2022-12-29T02:51:19;5.97;;;1.90;;
10059;SDS011;5069;49.306;8.636;2022-12-29T02:54:27;2.90;;;1.60;;
10059;SDS011;5069;49.306;8.636;2022-12-29T02:57:45;4.07;;;1.80;;
10059;SDS011;5069;49.306;8.636;2022-12-29T03:11:08;3.07;;;1.50;;
10059;SDS011;5069;49.306;8.636;2022-12-29T03:14:32;4.23;;;1.67;;
10059;SDS011;5069;49.306;8.636;2022-12-29T03:18:04;3.90;;;1.73;;
10059;SDS011;5069;49.306;8.636;2022-12-29T03:21:17;3.40;;;1.50;;
10059;SDS011;5069;49.306;8.636;2022-12-29T03:24:49;2.60;;;1.53;;
10059;SDS011;5069;49.306;8.636;2022-12-29T03:27:58;4.13;;;1.60;;
10059;SDS011;5069;49.306;8.636;2022-12-29T03:31:06;3.50;;;1.37;;
10059;SDS011;5069;49.306;8.636;2022-12-29T03:34:12;2.23;;;1.47;;
10059;SDS011;5069;49.306;8.636;2022-12-29T03:37:17;1.97;;;1.30;;
10059;SDS011;5069;49.306;8.636;2022-12-29T03:40:21;2.40;;;1.47;;
10059;SDS011;5069;49.306;8.636;2022-12-29T03:43:26;3.63;;;1.43;;
10059;SDS011;5069;49.306;8.636;2022-12-29T03:46:29;4.83;;;1.50;;
10059;SDS011;5069;49.306;8.636;2022-12-29T03:49:31;3.57;;;1.47;;
10059;SDS011;5069;49.306;8.636;2022-12-29T03:52:32;3.60;;;1.30;;
10059;SDS011;5069;49.306;8.636;2022-12-29T03:55:34;2.47;;;1.67;;
10059;SDS011;5069;49.306;8.636;2022-12-29T03:58:36;2.93;;;1.47;;
10059;SDS011;5069;49.306;8.636;2022-12-29T04:01:42;3.10;;;1.50;;
10059;SDS011;5069;49.306;8.636;2022-12-29T04:04:44;4.20;;;1.57;;
10059;SDS011;5069;49.306;8.636;2022-12-29T04:07:46;4.50;;;1.40;;
10059;SDS011;5069;49.306;8.636;2022-12-29T04:10:48;2.70;;;1.50;;
10059;SDS011;5069;49.306;8.636;2022-12-29T04:13:54;2.10;;;1.20;;
10059;SDS011;5069;49.306;8.636;2022-12-29T04:16:58;2.77;;;1.47;;
10059;SDS011;5069;49.306;8.636;2022-12-29T04:20:00;5.33;;;1.50;;
10059;SDS011;5069;49.306;8.636;2022-12-29T04:23:20;2.40;;;1.30;;
10059;SDS011;5069;49.306;8.636;2022-12-29T04:26:22;2.40;;;1.43;;
10059;SDS011;5069;49.306;8.636;2022-12-29T04:29:46;3.37;;;1.50;;
10059;SDS011;5069;49.306;8.636;2022-12-29T04:33:09;2.00;;;1.20;;
10059;SDS011;5069;49.306;8.636;2022-12-29T04:36:13;2.13;;;1.40;;
10059;SDS011;5069;49.306;8.636;2022-12-29T04:39:14;2.77;;;1.03;;
10059;SDS011;5069;49.306;8.636;2022-12-29T04:42:16;2.70;;;1.17;;
10059;SDS011;5069;49.306;8.636;2022-12-29T04:45:18;2.27;;;1.50;;
10059;SDS011;5069;49.306;8.636;2022-12-29T04:48:34;2.93;;;1.17;;
10059;SDS011;5069;49.306;8.636;2022-12-29T04:51:59;1.80;;;1.07;;
10059;SDS011;5069;49.306;8.636;2022-12-29T04:55:01;2.43;;;1.20;;
10059;SDS011;5069;49.306;8.636;2022-12-29T04:58:03;1.40;;;1.13;;
10059;SDS011;5069;49.306;8.636;2022-12-29T05:01:07;1.67;;;1.20;;
10059;SDS011;5069;49.306;8.636;2022-12-29T05:04:08;2.93;;;1.20;;
10059;SDS011;5069;49.306;8.636;2022-12-29T05:07:09;2.00;;;1.30;;
10059;SDS011;5069;49.306;8.636;2022-12-29T05:10:11;2.03;;;1.20;;
10059;SDS011;5069;49.306;8.636;2022-12-29T05:13:13;2.83;;;1.60;;
10059;SDS011;5069;49.306;8.636;2022-12-29T05:16:16;2.70;;;1.47;;
10059;SDS011;5069;49.306;8.636;2022-12-29T05:19:18;1.60;;;1.10;;
10059;SDS011;5069;49.306;8.636;2022-12-29T05:22:20;2.97;;;1.23;;
10059;SDS011;5069;49.306;8.636;2022-12-29T05:25:22;4.10;;;1.47;;
10059;SDS011;5069;49.306;8.636;2022-12-29T05:28:44;1.63;;;1.10;;
10059;SDS011;5069;49.306;8.636;2022-12-29T05:31:50;3.73;;;1.73;;
10059;SDS011;5069;49.306;8.636;2022-12-29T05:34:52;2.03;;;1.50;;
10059;SDS011;5069;49.306;8.636;2022-12-29T05:37:54;2.57;;;1.47;;
10059;SDS011;5069;49.306;8.636;2022-12-29T05:40:56;2.77;;;1.10;;
10059;SDS011;5069;49.306;8.636;2022-12-29T05:44:17;3.07;;;1.30;;
10059;SDS011;5069;49.306;8.636;2022-12-29T05:47:24;1.87;;;1.27;;
10059;SDS011;5069;49.306;8.636;2022-12-29T05:50:40;1.83;;;1.20;;
10059;SDS011;5069;49.306;8.636;2022-12-29T05:53:48;2.57;;;1.50;;
10059;SDS011;5069;49.306;8.636;2022-12-29T05:56:50;4.03;;;1.30;;
10059;SDS011;5069;49.306;8.636;2022-12-29T05:59:51;3.37;;;1.77;;
10059;SDS011;5069;49.306;8.636;2022-12-29T06:02:54;2.57;;;1.50;;
10059;SDS011;5069;49.306;8.636;2022-12-29T06:05:56;2.80;;;1.53;;
10059;SDS011;5069;49.306;8.636;2022-12-29T06:08:59;3.00;;;1.50;;
10059;SDS011;5069;49.306;8.636;2022-12-29T06:12:01;3.57;;;1.40;;
10059;SDS011;5069;49.306;8.636;2022-12-29T06:15:04;3.43;;;1.47;;
10059;SDS011;5069;49.306;8.636;2022-12-29T06:18:06;3.67;;;1.80;;
10059;SDS011;5069;49.306;8.636;2022-12-29T06:21:08;2.07;;;1.40;;
10059;SDS011;5069;49.306;8.636;2022-12-29T06:24:10;3.47;;;1.60;;
10059;SDS011;5069;49.306;8.636;2022-12-29T06:27:12;6.17;;;1.53;;
10059;SDS011;5069;49.306;8.636;2022-12-29T06:30:14;2.07;;;1.80;;
10059;SDS011;5069;49.306;8.636;2022-12-29T06:33:18;2.27;;;1.73;;
10059;SDS011;5069;49.306;8.636;2022-12-29T06:36:20;2.77;;;1.40;;
10059;SDS011;5069;49.306;8.636;2022-12-29T06:39:21;2.80;;;1.40;;
10059;SDS011;5069;49.306;8.636;2022-12-29T06:42:34;3.27;;;1.70;;
10059;SDS011;5069;49.306;8.636;2022-12-29T06:46:05;2.20;;;1.50;;
10059;SDS011;5069;49.306;8.636;2022-12-29T06:49:06;3.67;;;1.70;;
10059;SDS011;5069;49.306;8.636;2022-12-29T06:52:08;3.90;;;1.57;;
10059;SDS011;5069;49.306;8.636;2022-12-29T06:55:13;3.10;;;1.53;;
10059;SDS011;5069;49.306;8.636;2022-12-29T06:58:15;1.87;;;1.60;;
10059;SDS011;5069;49.306;8.636;2022-12-29T07:01:16;3.27;;;1.63;;
10059;SDS011;5069;49.306;8.636;2022-12-29T07:04:18;3.37;;;1.77;;
10059;SDS011;5069;49.306;8.636;2022-12-29T07:07:20;4.27;;;1.50;;
10059;SDS011;5069;49.306;8.636;2022-12-29T07:10:22;3.70;;;1.70;;
10059;SDS011;5069;49.306;8.636;2022-12-29T07:13:24;3.03;;;1.73;;
10059;SDS011;5069;49.306;8.636;2022-12-29T07:16:25;5.40;;;1.53;;
10059;SDS011;5069;49.306;8.636;2022-12-29T07:19:27;2.57;;;1.70;;
10059;SDS011;5069;49.306;8.636;2022-12-29T07:22:28;2.93;;;1.60;;
10059;SDS011;5069;49.306;8.636;2022-12-29T07:25:29;5.40;;;1.60;;
10059;SDS011;5069;49.306;8.636;2022-12-29T07:28:31;2.20;;;1.57;;
10059;SDS011;5069;49.306;8.636;2022-12-29T07:31:35;4.10;;;2.00;;
10059;SDS011;5069;49.306;8.636;2022-12-29T07:34:37;3.80;;;1.40;;
10059;SDS011;5069;49.306;8.636;2022-12-29T07:37:40;3.47;;;1.60;;
10059;SDS011;5069;49.306;8.636;2022-12-29T07:40:42;2.80;;;1.63;;
10059;SDS011;5069;49.306;8.636;2022-12-29T07:43:46;2.57;;;1.67;;
10059;SDS011;5069;49.306;8.636;2022-12-29T07:47:18;4.10;;;1.80;;
10059;SDS011;5069;49.306;8.636;2022-12-29T07:50:20;3.10;;;1.77;;
10059;SDS011;5069;49.306;8.636;2022-12-29T07:53:21;4.07;;;1.60;;
10059;SDS011;5069;49.306;8.636;2022-12-29T07:56:23;2.93;;;1.93;;
10059;SDS011;5069;49.306;8.636;2022-12-29T07:59:24;2.53;;;2.00;;
10059;SDS011;5069;49.306;8.636;2022-12-29T08:02:25;5.57;;;1.90;;
10059;SDS011;5069;49.306;8.636;2022-12-29T08:05:28;2.17;;;1.90;;
10059;SDS011;5069;49.306;8.636;2022-12-29T08:08:29;3.87;;;1.87;;
10059;SDS011;5069;49.306;8.636;2022-12-29T08:11:30;2.80;;;1.87;;
10059;SDS011;5069;49.306;8.636;2022-12-29T08:14:32;3.33;;;1.90;;
10059;SDS011;5069;49.306;8.636;2022-12-29T08:17:33;2.83;;;1.87;;
10059;SDS011;5069;49.306;8.636;2022-12-29T08:20:35;6.40;;;2.07;;
10059;SDS011;5069;49.306;8.636;2022-12-29T08:23:37;6.00;;;2.03;;
10059;SDS011;5069;49.306;8.636;2022-12-29T08:26:38;4.37;;;1.77;;
10059;SDS011;5069;49.306;8.636;2022-12-29T08:29:39;4.20;;;1.97;;
10059;SDS011;5069;49.306;8.636;2022-12-29T08:32:41;3.00;;;1.70;;
10059;SDS011;5069;49.306;8.636;2022-12-29T08:35:42;3.67;;;2.00;;
10059;SDS011;5069;49.306;8.636;2022-12-29T08:38:44;2.57;;;1.70;;
10059;SDS011;5069;49.306;8.636;2022-12-29T08:41:45;3.00;;;1.80;;
10059;SDS011;5069;49.306;8.636;2022-12-29T08:44:46;2.60;;;1.93;;
10059;SDS011;5069;49.306;8.636;2022-12-29T08:47:48;4.27;;;2.07;;
10059;SDS011;5069;49.306;8.636;2022-12-29T08:50:49;5.80;;;2.03;;
10059;SDS011;5069;49.306;8.636;2022-12-29T08:53:51;5.53;;;2.07;;
10059;SDS011;5069;49.306;8.636;2022-12-29T08:56:53;4.90;;;2.00;;
10059;SDS011;5069;49.306;8.636;2022-12-29T08:59:58;2.53;;;2.00;;
10059;SDS011;5069;49.306;8.636;2022-12-29T09:02:59;4.67;;;1.93;;
10059;SDS011;5069;49.306;8.636;2022-12-29T09:06:01;4.40;;;2.33;;
10059;SDS011;5069;49.306;8.636;2022-12-29T09:09:03;4.80;;;2.17;;
10059;SDS011;5069;49.306;8.636;2022-12-29T09:12:04;3.43;;;1.73;;
10059;SDS011;5069;49.306;8.636;2022-12-29T09:15:06;4.83;;;2.30;;
10059;SDS011;5069;49.306;8.636;2022-12-29T09:18:10;2.80;;;1.63;;
10059;SDS011;5069;49.306;8.636;2022-12-29T09:21:19;4.27;;;1.90;;
10059;SDS011;5069;49.306;8.636;2022-12-29T09:24:21;3.87;;;1.60;;
10059;SDS011;5069;49.306;8.636;2022-12-29T09:27:22;2.20;;;1.97;;
10059;SDS011;5069;49.306;8.636;2022-12-29T09:30:24;2.30;;;1.70;;
10059;SDS011;5069;49.306;8.636;2022-12-29T09:33:26;5.50;;;2.20;;
10059;SDS011;5069;49.306;8.636;2022-12-29T09:36:28;3.50;;;2.10;;
10059;SDS011;5069;49.306;8.636;2022-12-29T09:39:29;5.57;;;2.40;;
10059;SDS011;5069;49.306;8.636;2022-12-29T09:42:32;3.00;;;1.97;;
10059;SDS011;5069;49.306;8.636;2022-12-29T09:45:36;2.30;;;1.70;;
10059;SDS011;5069;49.306;8.636;2022-12-29T09:48:44;6.33;;;2.37;;
10059;SDS011;5069;49.306;8.636;2022-12-29T09:51:55;6.07;;;2.13;;
10059;SDS011;5069;49.306;8.636;2022-12-29T09:55:10;7.97;;;1.93;;
10059;SDS011;5069;49.306;8.636;2022-12-29T09:58:30;4.13;;;1.70;;
10059;SDS011;5069;49.306;8.636;2022-12-29T10:01:45;5.00;;;2.00;;
10059;SDS011;5069;49.306;8.636;2022-12-29T10:04:51;3.37;;;1.90;;
10059;SDS011;5069;49.306;8.636;2022-12-29T10:18:15;4.27;;;2.10;;
10059;SDS011;5069;49.306;8.636;2022-12-29T10:24:56;2.87;;;1.87;;
10059;SDS011;5069;49.306;8.636;2022-12-29T10:27:59;2.90;;;1.80;;
10059;SDS011;5069;49.306;8.636;2022-12-29T10:31:08;2.83;;;1.73;;
10059;SDS011;5069;49.306;8.636;2022-12-29T10:34:25;3.67;;;1.80;;
10059;SDS011;5069;49.306;8.636;2022-12-29T10:37:35;3.50;;;1.87;;
10059;SDS011;5069;49.306;8.636;2022-12-29T10:40:53;3.33;;;1.83;;
10059;SDS011;5069;49.306;8.636;2022-12-29T10:43:56;3.13;;;1.93;;
10059;SDS011;5069;49.306;8.636;2022-12-29T10:47:02;3.17;;;1.70;;
10059;SDS011;5069;49.306;8.636;2022-12-29T10:50:07;1.93;;;1.70;;
10059;SDS011;5069;49.306;8.636;2022-12-29T10:53:16;1.83;;;1.30;;
10059;SDS011;5069;49.306;8.636;2022-12-29T10:59:46;3.50;;;1.23;;
10059;SDS011;5069;49.306;8.636;2022-12-29T11:06:14;1.87;;;1.20;;
10059;SDS011;5069;49.306;8.636;2022-12-29T11:09:26;2.07;;;1.20;;
10059;SDS011;5069;49.306;8.636;2022-12-29T11:12:54;2.03;;;1.30;;
10059;SDS011;5069;49.306;8.636;2022-12-29T11:15:58;5.17;;;1.43;;
10059;SDS011;5069;49.306;8.636;2022-12-29T11:19:01;1.87;;;1.33;;
10059;SDS011;5069;49.306;8.636;2022-12-29T11:25:28;2.23;;;1.40;;
10059;SDS011;5069;49.306;8.636;2022-12-29T11:28:30;2.50;;;1.70;;
10059;SDS011;5069;49.306;8.636;2022-12-29T11:31:46;2.30;;;1.70;;
10059;SDS011;5069;49.306;8.636;2022-12-29T11:34:50;4.20;;;1.53;;
10059;SDS011;5069;49.306;8.636;2022-12-29T11:37:55;1.90;;;1.67;;
10059;SDS011;5069;49.306;8.636;2022-12-29T11:41:00;3.23;;;1.87;;
10059;SDS011;5069;49.306;8.636;2022-12-29T11:44:03;4.43;;;1.90;;
10059;SDS011;5069;49.306;8.636;2022-12-29T11:47:07;2.53;;;1.70;;
10059;SDS011;5069;49.306;8.636;2022-12-29T11:50:17;5.77;;;1.80;;
10059;SDS011;5069;49.306;8.636;2022-12-29T11:53:38;4.27;;;1.50;;
10059;SDS011;5069;49.306;8.636;2022-12-29T11:56:43;3.47;;;1.87;;
10059;SDS011;5069;49.306;8.636;2022-12-29T12:03:00;3.40;;;1.80;;
10059;SDS011;5069;49.306;8.636;2022-12-29T12:06:04;4.90;;;1.80;;
10059;SDS011;5069;49.306;8.636;2022-12-29T12:09:25;1.90;;;1.70;;
10059;SDS011;5069;49.306;8.636;2022-12-29T12:13:06;3.07;;;1.63;;
10059;SDS011;5069;49.306;8.636;2022-12-29T12:16:08;4.23;;;1.53;;
10059;SDS011;5069;49.306;8.636;2022-12-29T12:22:58;3.57;;;1.20;;
10059;SDS011;5069;49.306;8.636;2022-12-29T12:26:13;4.63;;;1.40;;
10059;SDS011;5069;49.306;8.636;2022-12-29T12:29:20;2.70;;;1.50;;
10059;SDS011;5069;49.306;8.636;2022-12-29T12:38:47;2.63;;;1.50;;
10059;SDS011;5069;49.306;8.636;2022-12-29T12:52:07;1.27;;;0.90;;
10059;SDS011;5069;49.306;8.636;2022-12-29T12:55:35;3.80;;;1.20;;
10059;SDS011;5069;49.306;8.636;2022-12-29T12:58:51;1.50;;;1.00;;
10059;SDS011;5069;49.306;8.636;2022-12-29T13:26:44;4.10;;;1.40;;
10059;SDS011;5069;49.306;8.636;2022-12-29T13:30:00;4.40;;;1.53;;
10059;SDS011;5069;49.306;8.636;2022-12-29T13:33:10;3.10;;;1.50;;
10059;SDS011;5069;49.306;8.636;2022-12-29T13:36:36;5.47;;;1.53;;
10059;SDS011;5069;49.306;8.636;2022-12-29T13:39:46;3.30;;;1.20;;
10059;SDS011;5069;49.306;8.636;2022-12-29T13:42:51;3.03;;;1.57;;
10059;SDS011;5069;49.306;8.636;2022-12-29T13:45:57;4.13;;;1.83;;
10059;SDS011;5069;49.306;8.636;2022-12-29T13:49:07;4.83;;;2.43;;
10059;SDS011;5069;49.306;8.636;2022-12-29T13:52:20;3.17;;;1.43;;
10059;SDS011;5069;49.306;8.636;2022-12-29T13:55:32;3.43;;;1.50;;
10059;SDS011;5069;49.306;8.636;2022-12-29T13:58:48;7.03;;;1.90;;
10059;SDS011;5069;49.306;8.636;2022-12-29T14:01:59;2.17;;;1.63;;
10059;SDS011;5069;49.306;8.636;2022-12-29T14:05:23;3.17;;;1.50;;
10059;SDS011;5069;49.306;8.636;2022-12-29T14:08:26;3.90;;;1.70;;
10059;SDS011;5069;49.306;8.636;2022-12-29T14:11:35;9.87;;;1.90;;
10059;SDS011;5069;49.306;8.636;2022-12-29T14:14:39;4.20;;;1.67;;
10059;SDS011;5069;49.306;8.636;2022-12-29T14:17:40;4.13;;;1.90;;
10059;SDS011;5069;49.306;8.636;2022-12-29T14:20:56;2.70;;;1.40;;
10059;SDS011;5069;49.306;8.636;2022-12-29T14:24:32;4.03;;;1.40;;
10059;SDS011;5069;49.306;8.636;2022-12-29T14:27:43;5.03;;;3.40;;
10059;SDS011;5069;49.306;8.636;2022-12-29T14:30:46;6.47;;;3.37;;
10059;SDS011;5069;49.306;8.636;2022-12-29T14:37:14;7.50;;;2.13;;
10059;SDS011;5069;49.306;8.636;2022-12-29T14:40:27;7.90;;;3.30;;
10059;SDS011;5069;49.306;8.636;2022-12-29T14:43:28;4.37;;;2.30;;
10059;SDS011;5069;49.306;8.636;2022-12-29T14:46:46;2.80;;;2.23;;
10059;SDS011;5069;49.306;8.636;2022-12-29T14:49:57;3.03;;;2.20;;
10059;SDS011;5069;49.306;8.636;2022-12-29T14:53:06;5.73;;;2.30;;
10059;SDS011;5069;49.306;8.636;2022-12-29T14:56:29;5.77;;;1.60;;
10059;SDS011;5069;49.306;8.636;2022-12-29T14:59:33;5.93;;;1.67;;
10059;SDS011;5069;49.306;8.636;2022-12-29T15:02:38;3.60;;;1.50;;
10059;SDS011;5069;49.306;8.636;2022-12-29T15:08:52;2.67;;;1.40;;
10059;SDS011;5069;49.306;8.636;2022-12-29T15:12:03;4.87;;;1.50;;
10059;SDS011;5069;49.306;8.636;2022-12-29T15:15:36;3.60;;;1.27;;
10059;SDS011;5069;49.306;8.636;2022-12-29T15:18:39;3.20;;;1.63;;
10059;SDS011;5069;49.306;8.636;2022-12-29T15:21:43;4.63;;;1.93;;
10059;SDS011;5069;49.306;8.636;2022-12-29T15:24:45;2.00;;;1.20;;
10059;SDS011;5069;49.306;8.636;2022-12-29T15:27:48;6.27;;;1.60;;
10059;SDS011;5069;49.306;8.636;2022-12-29T15:30:57;3.00;;;1.27;;
10059;SDS011;5069;49.306;8.636;2022-12-29T15:34:10;4.77;;;1.20;;
10059;SDS011;5069;49.306;8.636;2022-12-29T15:37:33;4.00;;;1.43;;
10059;SDS011;5069;49.306;8.636;2022-12-29T15:40:38;4.13;;;1.37;;
10059;SDS011;5069;49.306;8.636;2022-12-29T15:47:10;2.77;;;1.03;;
10059;SDS011;5069;49.306;8.636;2022-12-29T15:50:24;1.40;;;0.90;;
10059;SDS011;5069;49.306;8.636;2022-12-29T15:53:32;3.00;;;1.70;;
10059;SDS011;5069;49.306;8.636;2022-12-29T15:56:34;8.50;;;4.33;;
10059;SDS011;5069;49.306;8.636;2022-12-29T15:59:36;5.40;;;3.20;;
10059;SDS011;5069;49.306;8.636;2022-12-29T16:02:37;4.47;;;2.60;;
10059;SDS011;5069;49.306;8.636;2022-12-29T16:05:40;7.43;;;3.13;;
10059;SDS011;5069;49.306;8.636;2022-12-29T16:08:41;4.93;;;2.90;;
10059;SDS011;5069;49.306;8.636;2022-12-29T16:11:44;3.73;;;3.00;;
10059;SDS011;5069;49.306;8.636;2022-12-29T16:15:00;3.43;;;3.10;;
10059;SDS011;5069;49.306;8.636;2022-12-29T16:18:04;5.67;;;3.80;;
10059;SDS011;5069;49.306;8.636;2022-12-29T16:21:12;6.40;;;4.07;;
10059;SDS011;5069;49.306;8.636;2022-12-29T16:24:19;7.30;;;5.37;;
10059;SDS011;5069;49.306;8.636;2022-12-29T16:27:37;9.80;;;6.83;;
10059;SDS011;5069;49.306;8.636;2022-12-29T16:30:42;14.07;;;9.57;;
10059;SDS011;5069;49.306;8.636;2022-12-29T16:33:46;12.33;;;8.40;;
10059;SDS011;5069;49.306;8.636;2022-12-29T16:43:25;4.33;;;2.17;;
10059;SDS011;5069;49.306;8.636;2022-12-29T16:46:29;3.53;;;2.47;;
10059;SDS011;5069;49.306;8.636;2022-12-29T16:49:32;3.90;;;2.80;;
10059;SDS011;5069;49.306;8.636;2022-12-29T16:52:35;3.67;;;1.97;;
10059;SDS011;5069;49.306;8.636;2022-12-29T16:55:36;3.77;;;2.00;;
10059;SDS011;5069;49.306;8.636;2022-12-29T16:58:38;3.57;;;2.07;;
10059;SDS011;5069;49.306;8.636;2022-12-29T17:01:40;5.20;;;2.17;;
10059;SDS011;5069;49.306;8.636;2022-12-29T17:04:42;4.30;;;1.80;;
10059;SDS011;5069;49.306;8.636;2022-12-29T17:07:49;4.50;;;2.10;;
10059;SDS011;5069;49.306;8.636;2022-12-29T17:10:53;3.10;;;2.00;;
10059;SDS011;5069;49.306;8.636;2022-12-29T17:17:39;4.07;;;2.43;;
10059;SDS011;5069;49.306;8.636;2022-12-29T17:20:43;4.87;;;1.77;;
10059;SDS011;5069;49.306;8.636;2022-12-29T17:23:44;5.30;;;1.77;;
10059;SDS011;5069;49.306;8.636;2022-12-29T17:26:47;7.30;;;1.70;;
10059;SDS011;5069;49.306;8.636;2022-12-29T17:29:51;3.97;;;1.70;;
10059;SDS011;5069;49.306;8.636;2022-12-29T17:33:02;5.77;;;2.10;;
10059;SDS011;5069;49.306;8.636;2022-12-29T17:36:06;4.70;;;2.40;;
10059;SDS011;5069;49.306;8.636;2022-12-29T17:39:08;4.73;;;2.10;;
10059;SDS011;5069;49.306;8.636;2022-12-29T17:42:09;2.90;;;1.80;;
10059;SDS011;5069;49.306;8.636;2022-12-29T17:45:16;4.13;;;2.00;;
10059;SDS011;5069;49.306;8.636;2022-12-29T17:48:20;4.87;;;2.13;;
10059;SDS011;5069;49.306;8.636;2022-12-29T17:51:22;3.43;;;2.03;;
10059;SDS011;5069;49.306;8.636;2022-12-29T17:54:24;5.03;;;2.40;;
10059;SDS011;5069;49.306;8.636;2022-12-29T17:57:26;4.40;;;2.00;;
10059;SDS011;5069;49.306;8.636;2022-12-29T18:00:29;3.23;;;1.47;;
10059;SDS011;5069;49.306;8.636;2022-12-29T18:03:35;5.33;;;1.73;;
10059;SDS011;5069;49.306;8.636;2022-12-29T18:06:39;3.37;;;1.80;;
10059;SDS011;5069;49.306;8.636;2022-12-29T18:09:41;5.37;;;2.10;;
10059;SDS011;5069;49.306;8.636;2022-12-29T18:12:43;5.83;;;1.73;;
10059;SDS011;5069;49.306;8.636;2022-12-29T18:15:47;5.63;;;1.80;;
10059;SDS011;5069;49.306;8.636;2022-12-29T18:18:49;4.23;;;1.90;;
10059;SDS011;5069;49.306;8.636;2022-12-29T18:21:50;4.57;;;2.30;;
10059;SDS011;5069;49.306;8.636;2022-12-29T18:24:51;6.50;;;2.50;;
10059;SDS011;5069;49.306;8.636;2022-12-29T18:27:53;5.33;;;2.70;;
10059;SDS011;5069;49.306;8.636;2022-12-29T18:30:55;7.83;;;3.40;;
10059;SDS011;5069;49.306;8.636;2022-12-29T18:34:00;14.87;;;4.90;;
10059;SDS011;5069;49.306;8.636;2022-12-29T18:37:02;13.47;;;4.33;;
10059;SDS011;5069;49.306;8.636;2022-12-29T18:40:04;9.10;;;3.77;;
10059;SDS011;5069;49.306;8.636;2022-12-29T18:43:06;8.77;;;3.87;;
10059;SDS011;5069;49.306;8.636;2022-12-29T18:46:07;6.60;;;3.00;;
10059;SDS011;5069;49.306;8.636;2022-12-29T18:49:09;9.07;;;2.63;;
10059;SDS011;5069;49.306;8.636;2022-12-29T18:52:11;6.43;;;2.97;;
10059;SDS011;5069;49.306;8.636;2022-12-29T18:55:15;7.00;;;2.60;;
10059;SDS011;5069;49.306;8.636;2022-12-29T18:58:23;4.97;;;2.63;;
10059;SDS011;5069;49.306;8.636;2022-12-29T19:01:32;5.60;;;2.77;;
10059;SDS011;5069;49.306;8.636;2022-12-29T19:04:33;5.00;;;2.80;;
10059;SDS011;5069;49.306;8.636;2022-12-29T19:07:35;6.40;;;2.90;;
10059;SDS011;5069;49.306;8.636;2022-12-29T19:10:37;4.70;;;2.80;;
10059;SDS011;5069;49.306;8.636;2022-12-29T19:13:39;4.23;;;2.70;;
10059;SDS011;5069;49.306;8.636;2022-12-29T19:16:41;4.53;;;2.20;;
10059;SDS011;5069;49.306;8.636;2022-12-29T19:19:42;6.70;;;2.70;;
10059;SDS011;5069;49.306;8.636;2022-12-29T19:22:44;4.83;;;2.70;;
10059;SDS011;5069;49.306;8.636;2022-12-29T19:25:46;6.03;;;2.60;;
10059;SDS011;5069;49.306;8.636;2022-12-29T19:28:48;4.77;;;2.90;;
10059;SDS011;5069;49.306;8.636;2022-12-29T19:31:49;6.70;;;3.40;;
10059;SDS011;5069;49.306;8.636;2022-12-29T19:34:51;6.43;;;3.20;;
10059;SDS011;5069;49.306;8.636;2022-12-29T19:37:52;5.93;;;2.87;;
10059;SDS011;5069;49.306;8.636;2022-12-29T19:40:55;4.90;;;2.93;;
10059;SDS011;5069;49.306;8.636;2022-12-29T19:43:56;5.67;;;2.83;;
10059;SDS011;5069;49.306;8.636;2022-12-29T19:46:58;2.97;;;2.57;;
10059;SDS011;5069;49.306;8.636;2022-12-29T19:50:00;4.23;;;2.60;;
10059;SDS011;5069;49.306;8.636;2022-12-29T19:53:02;3.03;;;2.23;;
10059;SDS011;5069;49.306;8.636;2022-12-29T19:56:07;4.67;;;2.30;;
10059;SDS011;5069;49.306;8.636;2022-12-29T19:59:09;8.33;;;2.50;;
10059;SDS011;5069;49.306;8.636;2022-12-29T20:02:16;4.43;;;2.43;;
10059;SDS011;5069;49.306;8.636;2022-12-29T20:05:20;5.03;;;2.20;;
10059;SDS011;5069;49.306;8.636;2022-12-29T20:08:21;6.77;;;2.40;;
10059;SDS011;5069;49.306;8.636;2022-12-29T20:11:23;7.23;;;2.40;;
10059;SDS011;5069;49.306;8.636;2022-12-29T20:14:24;4.63;;;2.33;;
10059;SDS011;5069;49.306;8.636;2022-12-29T20:17:26;3.07;;;2.20;;
10059;SDS011;5069;49.306;8.636;2022-12-29T20:20:47;3.43;;;2.33;;
10059;SDS011;5069;49.306;8.636;2022-12-29T20:23:50;4.57;;;1.90;;
10059;SDS011;5069;49.306;8.636;2022-12-29T20:26:53;5.93;;;2.10;;
10059;SDS011;5069;49.306;8.636;2022-12-29T20:29:55;4.53;;;2.23;;
10059;SDS011;5069;49.306;8.636;2022-12-29T20:32:56;4.67;;;2.10;;
10059;SDS011;5069;49.306;8.636;2022-12-29T20:36:08;3.17;;;2.07;;
10059;SDS011;5069;49.306;8.636;2022-12-29T20:39:14;4.17;;;2.23;;
10059;SDS011;5069;49.306;8.636;2022-12-29T20:42:17;7.43;;;2.07;;
10059;SDS011;5069;49.306;8.636;2022-12-29T20:45:19;3.10;;;1.80;;
10059;SDS011;5069;49.306;8.636;2022-12-29T20:48:20;6.67;;;2.10;;
10059;SDS011;5069;49.306;8.636;2022-12-29T20:51:22;4.27;;;2.13;;
10059;SDS011;5069;49.306;8.636;2022-12-29T20:54:23;4.30;;;2.00;;
10059;SDS011;5069;49.306;8.636;2022-12-29T20:57:25;4.60;;;2.37;;